createdAt,value
2023-05-14T00:03:02.008Z,92.04
2023-05-14T00:06:39.098Z,91.82
2023-05-14T00:13:29.797Z,92.03
2023-05-14T00:17:01.034Z,92.06
2023-05-14T00:20:20.537Z,92.10
2023-05-14T00:23:49.333Z,92.05
2023-05-14T00:27:08.563Z,92.20
2023-05-14T00:30:29.852Z,92.19
2023-05-14T00:33:59.895Z,92.48
2023-05-14T00:37:41.030Z,92.54
2023-05-14T00:40:58.509Z,92.30
2023-05-14T00:44:10.705Z,92.50
2023-05-14T00:47:49.517Z,92.61
2023-05-14T00:51:27.526Z,92.43
2023-05-14T00:58:48.764Z,92.66
2023-05-14T01:02:03.341Z,92.42
2023-05-14T01:05:40.622Z,92.57
2023-05-14T01:09:19.101Z,92.66
2023-05-14T01:13:07.292Z,92.64
2023-05-14T01:20:16.464Z,92.71
2023-05-14T01:23:42.616Z,92.80
2023-05-14T01:27:06.478Z,92.97
2023-05-14T01:30:22.748Z,93.10
2023-05-14T01:33:50.610Z,93.19
2023-05-14T01:37:22.246Z,93.43
2023-05-14T01:40:40.987Z,93.29
2023-05-14T01:43:47.627Z,93.26
2023-05-14T01:47:05.168Z,93.31
2023-05-14T01:53:47.168Z,93.55
2023-05-14T01:57:23.407Z,93.95
2023-05-14T02:00:54.283Z,93.74
2023-05-14T02:04:30.270Z,93.62
2023-05-14T02:08:10.955Z,93.54
2023-05-14T02:11:22.382Z,93.50
2023-05-14T02:14:44.148Z,93.26
2023-05-14T02:18:06.083Z,93.18
2023-05-14T02:21:43.057Z,93.15
2023-05-14T02:24:55.288Z,92.86
2023-05-14T02:31:45.091Z,92.86
2023-05-14T02:35:00.376Z,92.99
2023-05-14T02:38:16.770Z,92.95
2023-05-14T02:41:35.199Z,93.23
2023-05-14T02:45:09.368Z,93.18
2023-05-14T02:48:47.572Z,93.29
2023-05-14T02:55:34.288Z,93.61
2023-05-14T02:58:51.764Z,93.97
2023-05-14T03:02:21.652Z,94.24
2023-05-14T03:16:23.734Z,93.99
2023-05-14T03:19:38.113Z,93.93
2023-05-14T03:23:11.502Z,94.07
2023-05-14T03:26:31.999Z,93.65
2023-05-14T03:29:58.961Z,93.18
2023-05-14T03:33:23.742Z,92.71
2023-05-14T03:36:32.864Z,92.24
2023-05-14T03:39:53.627Z,91.90
2023-05-14T03:43:29.206Z,91.51
2023-05-14T03:46:58.795Z,91.06
2023-05-14T03:50:16.768Z,90.66
2023-05-14T03:53:44.762Z,90.36
2023-05-14T03:56:56.078Z,89.95
2023-05-14T04:00:19.855Z,89.50
2023-05-14T04:03:25.545Z,89.02
2023-05-14T04:06:54.367Z,88.79
2023-05-14T04:10:27.276Z,88.22
2023-05-14T04:14:01.089Z,87.96
2023-05-14T04:17:20.129Z,87.41
2023-05-14T04:20:49.157Z,86.65
2023-05-14T04:24:13.417Z,86.30
2023-05-14T04:27:41.093Z,85.28
2023-05-14T04:30:58.339Z,84.99
2023-05-14T04:34:17.351Z,84.28
2023-05-14T04:41:46.572Z,83.54
2023-05-14T04:45:14.869Z,83.45
2023-05-14T04:48:52.118Z,83.02
2023-05-14T04:52:16.855Z,82.22
2023-05-14T04:55:47.905Z,82.00
2023-05-14T04:59:19.747Z,81.75
2023-05-14T05:02:44.425Z,81.13
2023-05-14T05:06:10.598Z,80.59
2023-05-14T05:09:43.895Z,80.36
2023-05-14T05:12:59.248Z,79.65
2023-05-14T05:16:25.496Z,78.80
2023-05-14T05:20:01.131Z,77.74
2023-05-14T05:23:25.773Z,76.95
2023-05-14T05:27:04.297Z,76.09
2023-05-14T05:34:11.894Z,75.03
2023-05-14T05:37:18.775Z,74.18
2023-05-14T05:40:42.329Z,74.26
2023-05-14T05:44:05.475Z,74.16
2023-05-14T05:47:16.262Z,72.67
2023-05-14T05:50:44.934Z,70.30
2023-05-14T05:57:18.922Z,63.44
2023-05-14T06:00:33.638Z,61.31
2023-05-14T06:03:51.338Z,60.76
2023-05-14T06:06:57.798Z,58.42
2023-05-14T06:10:09.141Z,57.49
2023-05-14T06:16:47.668Z,58.76
2023-05-14T06:20:13.569Z,59.81
2023-05-14T06:27:24.681Z,56.75
2023-05-14T06:30:41.121Z,55.73
2023-05-14T06:33:50.912Z,56.62
2023-05-14T06:37:08.749Z,55.88
2023-05-14T06:40:30.559Z,54.69
2023-05-14T06:43:56.005Z,54.76
2023-05-14T06:50:30.246Z,54.25
2023-05-14T06:53:41.587Z,53.90
2023-05-14T06:56:56.588Z,53.21
2023-05-14T07:00:00.100Z,52.00
2023-05-14T07:03:22.297Z,52.55
2023-05-14T07:06:35.676Z,51.85
2023-05-14T07:09:42.821Z,52.59
2023-05-14T07:12:59.769Z,52.18
2023-05-14T07:16:20.327Z,51.48
2023-05-14T07:23:04.458Z,50.62
2023-05-14T07:26:11.233Z,50.28
2023-05-14T07:29:33.028Z,49.02
2023-05-14T07:32:47.017Z,49.42
2023-05-14T07:36:13.963Z,49.49
2023-05-14T07:39:35.835Z,49.25
2023-05-14T07:46:38.531Z,46.35
2023-05-14T07:49:54.718Z,45.31
2023-05-14T07:53:26.747Z,45.04
2023-05-14T07:56:38.545Z,43.11
2023-05-14T08:03:24.022Z,41.08
2023-05-14T08:06:45.431Z,38.49
2023-05-14T08:09:53.813Z,38.34
2023-05-14T08:13:11.165Z,38.42
2023-05-14T08:16:23.262Z,39.41
2023-05-14T08:19:38.951Z,39.16
2023-05-14T08:22:57.388Z,38.75
2023-05-14T08:26:27.386Z,39.12
2023-05-14T08:33:23.590Z,37.77
2023-05-14T08:39:57.334Z,34.65
2023-05-14T08:43:21.030Z,33.01
2023-05-14T08:46:59.641Z,33.30
2023-05-14T08:50:17.560Z,33.43
2023-05-14T08:53:45.766Z,33.42
2023-05-14T08:57:00.200Z,31.52
2023-05-14T09:00:35.942Z,31.67
2023-05-14T09:03:51.780Z,33.07
2023-05-14T09:10:37.174Z,34.12
2023-05-14T09:17:28.119Z,34.26
2023-05-14T09:20:36.639Z,35.12
2023-05-14T09:23:58.762Z,35.56
2023-05-14T09:27:10.905Z,35.84
2023-05-14T09:34:06.683Z,36.14
2023-05-14T09:37:15.463Z,35.54
2023-05-14T09:40:29.126Z,35.58
2023-05-14T09:43:45.648Z,34.92
2023-05-14T09:47:00.728Z,33.39
2023-05-14T09:50:26.834Z,32.68
2023-05-14T09:53:36.198Z,31.24
2023-05-14T09:56:49.652Z,30.51
2023-05-14T10:00:08.944Z,30.46
2023-05-14T10:03:45.644Z,30.53
2023-05-14T10:10:22.153Z,31.92
2023-05-14T10:13:43.946Z,31.75
2023-05-14T10:16:58.504Z,31.94
2023-05-14T10:20:16.251Z,31.06
2023-05-14T10:30:30.255Z,34.63
2023-05-14T10:34:18.985Z,35.53
2023-05-14T10:37:42.649Z,35.47
2023-05-14T10:41:01.327Z,35.34
2023-05-14T10:44:40.482Z,35.49
2023-05-14T10:48:04.513Z,35.68
2023-05-14T10:51:14.658Z,35.95
2023-05-14T10:54:20.361Z,36.43
2023-05-14T10:57:45.616Z,36.76
2023-05-14T11:01:15.598Z,37.00
2023-05-14T11:04:29.611Z,38.14
2023-05-14T11:07:55.952Z,38.53
2023-05-14T11:14:49.938Z,38.63
2023-05-14T11:18:15.227Z,39.17
2023-05-14T11:24:41.723Z,39.23
2023-05-14T11:27:49.443Z,39.46
2023-05-14T11:31:09.863Z,39.56
2023-05-14T11:34:18.444Z,40.11
2023-05-14T11:37:40.432Z,40.15
2023-05-14T11:41:06.971Z,40.60
2023-05-14T11:48:00.548Z,41.29
2023-05-14T11:51:18.500Z,42.53
2023-05-14T11:54:29.835Z,42.82
2023-05-14T11:57:49.357Z,43.45
2023-05-14T12:01:36.708Z,46.34
2023-05-14T12:05:09.174Z,48.07
2023-05-14T12:08:22.415Z,48.97
2023-05-14T12:11:47.428Z,49.41
2023-05-14T12:18:32.012Z,50.24
2023-05-14T12:21:42.134Z,52.87
2023-05-14T12:25:08.547Z,54.63
2023-05-14T12:28:22.351Z,54.06
2023-05-14T12:31:39.684Z,55.71
2023-05-14T12:34:53.710Z,55.19
2023-05-14T12:38:03.400Z,56.53
2023-05-14T12:41:22.639Z,56.51
2023-05-14T12:44:38.406Z,57.23
2023-05-14T12:48:02.597Z,57.55
2023-05-14T12:51:26.949Z,57.43
2023-05-14T12:54:33.164Z,57.83
2023-05-14T12:57:39.878Z,59.55
2023-05-14T13:01:06.826Z,61.20
2023-05-14T13:04:52.949Z,59.57
2023-05-14T13:08:20.838Z,61.87
2023-05-14T13:11:35.495Z,61.23
2023-05-14T13:14:42.601Z,61.69
2023-05-14T13:18:12.151Z,62.02
2023-05-14T13:21:21.035Z,62.90
2023-05-14T13:24:29.453Z,62.98
2023-05-14T13:28:09.409Z,64.64
2023-05-14T13:31:19.018Z,65.38
2023-05-14T13:34:32.650Z,68.44
2023-05-14T13:37:48.664Z,68.83
2023-05-14T13:41:37.514Z,70.43
2023-05-14T13:44:59.683Z,72.98
2023-05-14T13:48:45.930Z,72.64
2023-05-14T13:52:03.631Z,72.01
2023-05-14T13:55:23.021Z,72.86
2023-05-14T13:58:33.677Z,72.08
2023-05-14T14:01:47.370Z,71.32
2023-05-14T14:05:03.685Z,72.02
2023-05-14T14:08:40.707Z,71.46
2023-05-14T14:12:02.875Z,72.10
2023-05-14T14:15:17.736Z,71.75
2023-05-14T14:18:44.235Z,72.17
2023-05-14T14:22:08.418Z,72.75
2023-05-14T14:28:49.056Z,72.66
2023-05-14T14:32:36.929Z,72.87
2023-05-14T14:35:58.173Z,73.53
2023-05-14T14:39:05.441Z,74.04
2023-05-14T14:45:55.127Z,76.31
2023-05-14T14:49:15.667Z,75.54
2023-05-14T14:52:25.979Z,75.83
2023-05-14T14:55:36.028Z,76.23
2023-05-14T14:58:46.828Z,76.56
2023-05-14T15:02:09.235Z,76.27
2023-05-14T15:09:38.810Z,74.62
2023-05-14T15:13:08.969Z,74.33
2023-05-14T15:16:27.055Z,73.04
2023-05-14T15:19:36.356Z,71.61
2023-05-14T15:22:46.289Z,71.13
2023-05-14T15:26:08.011Z,70.53
2023-05-14T15:29:29.136Z,69.57
2023-05-14T15:33:04.365Z,70.77
2023-05-14T15:36:18.551Z,70.18
2023-05-14T15:39:48.171Z,70.85
2023-05-14T15:43:01.111Z,71.46
2023-05-14T15:46:33.395Z,71.73
2023-05-14T15:49:43.162Z,72.37
2023-05-14T15:53:03.295Z,72.74
2023-05-14T15:56:13.585Z,73.61
2023-05-14T15:59:32.178Z,75.15
2023-05-14T16:02:58.179Z,74.83
2023-05-14T16:06:11.189Z,75.69
2023-05-14T16:09:37.712Z,75.49
2023-05-14T16:12:52.957Z,76.18
2023-05-14T16:16:00.250Z,76.95
2023-05-14T16:19:22.944Z,76.71
2023-05-14T16:22:48.045Z,77.30
2023-05-14T16:26:13.900Z,76.98
2023-05-14T16:29:36.570Z,77.44
2023-05-14T16:33:03.632Z,78.27
2023-05-14T16:36:22.711Z,78.61
2023-05-14T16:39:37.873Z,79.88
2023-05-14T16:43:05.960Z,81.76
2023-05-14T16:46:29.550Z,83.19
2023-05-14T16:49:53.743Z,83.96
2023-05-14T16:53:03.283Z,85.53
2023-05-14T16:56:18.194Z,85.79
2023-05-14T16:59:35.628Z,86.44
2023-05-14T17:02:42.708Z,86.43
2023-05-14T17:05:54.316Z,86.53
2023-05-14T17:09:08.040Z,86.80
2023-05-14T17:12:28.639Z,88.61
2023-05-14T17:16:04.257Z,92.16
2023-05-14T17:19:25.384Z,90.93
2023-05-14T17:22:48.060Z,90.77
2023-05-14T17:25:56.699Z,91.25
2023-05-14T17:29:02.754Z,90.98
2023-05-14T17:32:32.974Z,91.28
2023-05-14T17:35:46.978Z,91.42
2023-05-14T17:39:05.490Z,91.63
2023-05-14T17:42:17.423Z,93.72
2023-05-14T17:45:53.768Z,93.18
2023-05-14T17:49:14.499Z,94.19
2023-05-14T17:52:30.116Z,94.34
2023-05-14T17:55:54.445Z,94.50
2023-05-14T17:59:16.068Z,94.35
2023-05-14T18:02:34.587Z,95.13
2023-05-14T18:05:54.263Z,96.60
2023-05-14T18:09:12.275Z,95.40
2023-05-14T18:12:30.803Z,95.54
2023-05-14T18:15:44.911Z,96.37
2023-05-14T18:18:53.651Z,95.93
2023-05-14T18:22:08.249Z,95.91
2023-05-14T18:28:57.942Z,95.83
2023-05-14T18:32:19.604Z,96.34
2023-05-14T18:35:48.397Z,95.92
2023-05-14T18:38:55.540Z,96.10
2023-05-14T18:42:20.876Z,96.23
2023-05-14T18:45:41.452Z,96.11
2023-05-14T18:49:13.769Z,96.18
2023-05-14T18:52:45.914Z,96.42
2023-05-14T18:55:58.067Z,96.36
2023-05-14T18:59:12.717Z,96.57
2023-05-14T19:02:24.573Z,96.25
2023-05-14T19:05:34.872Z,96.21
2023-05-14T19:09:25.014Z,96.10
2023-05-14T19:12:47.318Z,96.21
2023-05-14T19:15:57.204Z,96.06
2023-05-14T19:19:04.883Z,96.22
2023-05-14T19:22:30.861Z,96.50
2023-05-14T19:26:08.595Z,96.52
2023-05-14T19:33:01.287Z,97.08
2023-05-14T19:39:47.863Z,96.86
2023-05-14T19:42:59.132Z,96.67
2023-05-14T19:46:15.380Z,96.19
2023-05-14T19:52:47.584Z,95.08
2023-05-14T19:56:27.276Z,94.98
2023-05-14T19:59:40.671Z,95.65
2023-05-14T20:03:14.623Z,95.49
2023-05-14T20:06:34.833Z,95.95
2023-05-14T20:10:10.018Z,95.44
2023-05-14T20:17:04.119Z,95.52
2023-05-14T20:20:14.628Z,95.32
2023-05-14T20:24:17.317Z,94.51
2023-05-14T20:27:34.729Z,94.52
2023-05-14T20:30:58.526Z,94.28
2023-05-14T20:34:31.001Z,94.29
2023-05-14T20:37:54.137Z,94.71
2023-05-14T20:41:15.110Z,94.81
2023-05-14T20:44:37.190Z,94.77
2023-05-14T20:47:57.026Z,94.81
2023-05-14T20:51:15.212Z,94.22
2023-05-14T20:54:37.650Z,93.67
2023-05-14T20:57:53.361Z,93.48
2023-05-14T21:01:19.097Z,93.38
2023-05-14T21:08:33.055Z,92.74
2023-05-14T21:12:15.117Z,92.64
2023-05-14T21:15:34.098Z,92.65
2023-05-14T21:18:46.833Z,92.65
2023-05-14T21:22:09.031Z,92.35
2023-05-14T21:25:25.093Z,92.50
2023-05-14T21:28:44.241Z,92.01
2023-05-14T21:32:00.761Z,91.52
2023-05-14T21:35:29.586Z,91.47
2023-05-14T21:38:48.161Z,91.48
2023-05-14T21:42:06.936Z,91.38
2023-05-14T21:45:23.879Z,91.74
2023-05-14T21:48:32.753Z,92.20
2023-05-14T21:51:40.784Z,92.05
2023-05-14T21:54:59.889Z,92.36
2023-05-14T21:58:22.053Z,92.35
2023-05-14T22:05:20.718Z,93.01
2023-05-14T22:08:30.177Z,92.43
2023-05-14T22:11:54.175Z,92.61
2023-05-14T22:15:16.358Z,92.66
2023-05-14T22:19:01.799Z,92.27
2023-05-14T22:22:32.891Z,91.62
2023-05-14T22:25:55.979Z,91.77
2023-05-14T22:29:31.579Z,91.59
2023-05-14T22:32:58.980Z,91.49
2023-05-14T22:40:11.772Z,91.14
2023-05-14T22:43:28.272Z,90.69
2023-05-14T22:50:36.395Z,90.38
2023-05-14T22:54:08.531Z,90.41
2023-05-14T22:57:28.956Z,90.07
2023-05-14T23:00:51.451Z,89.82
2023-05-14T23:04:20.217Z,89.59
2023-05-14T23:07:41.783Z,89.96
2023-05-14T23:10:58.306Z,89.22
2023-05-14T23:14:13.711Z,88.98
2023-05-14T23:17:32.740Z,88.16
2023-05-14T23:24:29.435Z,87.83
2023-05-14T23:27:39.285Z,87.12
2023-05-14T23:30:52.991Z,87.23
2023-05-14T23:34:28.683Z,86.94
2023-05-14T23:37:54.657Z,86.70
2023-05-14T23:41:33.670Z,86.40
2023-05-14T23:44:54.236Z,86.14
2023-05-14T23:48:31.157Z,85.99
2023-05-14T23:51:46.454Z,85.71
2023-05-14T23:55:01.957Z,85.55
2023-05-14T23:58:32.348Z,85.73
